sensor_id;sensor_type;location;lat;lon;timestamp;noise_LAeq;noise_LA_min;noise_LA_max;noise_LA01;noise_LA95
75037;Laerm;64247;51.540;5.854;2022-12-07T00:00:35;46.59;44.80;48.17;;
75037;Laerm;64247;51.540;5.854;2022-12-07T00:02:36;47.25;45.11;50.06;;
75037;Laerm;64247;51.540;5.854;2022-12-07T00:04:37;49.19;45.76;55.69;;
75037;Laerm;64247;51.540;5.854;2022-12-07T00:06:41;47.18;45.51;49.39;;
75037;Laerm;64247;51.540;5.854;2022-12-07T00:08:43;48.62;45.58;57.72;;
75037;Laerm;64247;51.540;5.854;2022-12-07T00:10:44;47.79;45.26;56.68;;
75037;Laerm;64247;51.540;5.854;2022-12-07T00:12:44;47.95;45.55;52.50;;
75037;Laerm;64247;51.540;5.854;2022-12-07T00:14:46;47.79;45.37;52.18;;
75037;Laerm;64247;51.540;5.854;2022-12-07T00:16:50;47.69;45.42;58.59;;
75037;Laerm;64247;51.540;5.854;2022-12-07T00:18:51;47.79;45.61;51.51;;
75037;Laerm;64247;51.540;5.854;2022-12-07T00:20:52;47.50;45.80;51.35;;
75037;Laerm;64247;51.540;5.854;2022-12-07T00:22:53;47.90;45.14;53.23;;
75037;Laerm;64247;51.540;5.854;2022-12-07T00:24:54;47.60;45.45;54.29;;
75037;Laerm;64247;51.540;5.854;2022-12-07T00:26:54;52.66;46.31;61.39;;
75037;Laerm;64247;51.540;5.854;2022-12-07T00:29:00;49.22;45.27;57.58;;
75037;Laerm;64247;51.540;5.854;2022-12-07T00:31:15;48.00;45.31;53.98;;
75037;Laerm;64247;51.540;5.854;2022-12-07T00:33:16;51.05;46.42;61.04;;
75037;Laerm;64247;51.540;5.854;2022-12-07T00:35:17;48.00;45.74;56.23;;
75037;Laerm;64247;51.540;5.854;2022-12-07T00:37:18;47.89;45.36;52.39;;
75037;Laerm;64247;51.540;5.854;2022-12-07T00:39:18;47.53;45.19;57.71;;
75037;Laerm;64247;51.540;5.854;2022-12-07T00:41:22;50.72;45.79;60.75;;
75037;Laerm;64247;51.540;5.854;2022-12-07T00:43:24;48.02;45.16;52.63;;
75037;Laerm;64247;51.540;5.854;2022-12-07T00:45:25;47.52;45.13;54.57;;
75037;Laerm;64247;51.540;5.854;2022-12-07T00:47:26;48.24;45.45;55.26;;
75037;Laerm;64247;51.540;5.854;2022-12-07T00:49:26;47.32;45.25;51.10;;
75037;Laerm;64247;51.540;5.854;2022-12-07T00:51:27;48.67;45.41;55.16;;
75037;Laerm;64247;51.540;5.854;2022-12-07T00:53:29;47.33;44.98;54.21;;
75037;Laerm;64247;51.540;5.854;2022-12-07T00:55:33;47.74;45.08;55.46;;
75037;Laerm;64247;51.540;5.854;2022-12-07T00:57:34;48.41;45.47;56.74;;
75037;Laerm;64247;51.540;5.854;2022-12-07T00:59:35;47.40;45.04;51.97;;
75037;Laerm;64247;51.540;5.854;2022-12-07T01:01:36;47.30;44.72;52.34;;
75037;Laerm;64247;51.540;5.854;2022-12-07T01:03:38;47.85;45.83;51.44;;
75037;Laerm;64247;51.540;5.854;2022-12-07T01:05:40;47.97;45.70;51.46;;
75037;Laerm;64247;51.540;5.854;2022-12-07T01:07:49;47.66;45.72;50.29;;
75037;Laerm;64247;51.540;5.854;2022-12-07T01:09:49;47.95;45.88;53.09;;
75037;Laerm;64247;51.540;5.854;2022-12-07T01:11:50;48.02;45.89;51.90;;
75037;Laerm;64247;51.540;5.854;2022-12-07T01:13:53;48.52;46.10;54.48;;
75037;Laerm;64247;51.540;5.854;2022-12-07T01:15:58;48.19;45.92;53.43;;
75037;Laerm;64247;51.540;5.854;2022-12-07T01:18:00;48.22;46.42;52.73;;
75037;Laerm;64247;51.540;5.854;2022-12-07T01:20:01;49.61;46.51;56.20;;
75037;Laerm;64247;51.540;5.854;2022-12-07T01:22:02;51.23;46.75;59.82;;
75037;Laerm;64247;51.540;5.854;2022-12-07T01:24:05;50.15;46.21;57.38;;
75037;Laerm;64247;51.540;5.854;2022-12-07T01:26:11;49.30;46.26;56.08;;
75037;Laerm;64247;51.540;5.854;2022-12-07T01:28:12;48.29;46.06;52.91;;
75037;Laerm;64247;51.540;5.854;2022-12-07T01:30:14;48.24;45.65;54.07;;
75037;Laerm;64247;51.540;5.854;2022-12-07T01:32:14;48.31;46.07;53.52;;
75037;Laerm;64247;51.540;5.854;2022-12-07T01:34:15;48.92;45.81;55.94;;
75037;Laerm;64247;51.540;5.854;2022-12-07T01:36:30;48.49;45.40;54.34;;
75037;Laerm;64247;51.540;5.854;2022-12-07T01:38:34;49.09;45.93;62.77;;
75037;Laerm;64247;51.540;5.854;2022-12-07T01:40:35;51.84;46.09;64.86;;
75037;Laerm;64247;51.540;5.854;2022-12-07T01:42:35;49.46;45.68;58.18;;
75037;Laerm;64247;51.540;5.854;2022-12-07T01:47:33;48.73;45.86;56.57;;
75037;Laerm;64247;51.540;5.854;2022-12-07T01:49:54;49.05;45.92;54.81;;
75037;Laerm;64247;51.540;5.854;2022-12-07T01:52:27;48.23;46.13;53.69;;
75037;Laerm;64247;51.540;5.854;2022-12-07T01:54:31;48.75;46.54;54.39;;
75037;Laerm;64247;51.540;5.854;2022-12-07T01:56:33;49.21;46.06;55.56;;
75037;Laerm;64247;51.540;5.854;2022-12-07T01:58:35;48.90;45.65;58.32;;
75037;Laerm;64247;51.540;5.854;2022-12-07T02:00:36;47.40;45.12;52.84;;
75037;Laerm;64247;51.540;5.854;2022-12-07T02:03:05;48.10;45.21;55.13;;
75037;Laerm;64247;51.540;5.854;2022-12-07T02:05:06;47.65;44.89;53.62;;
75037;Laerm;64247;51.540;5.854;2022-12-07T02:07:08;48.59;45.47;55.26;;
75037;Laerm;64247;51.540;5.854;2022-12-07T02:09:09;47.30;45.05;53.33;;
75037;Laerm;64247;51.540;5.854;2022-12-07T02:11:10;47.44;45.21;52.52;;
75037;Laerm;64247;51.540;5.854;2022-12-07T02:13:16;47.38;44.85;52.50;;
75037;Laerm;64247;51.540;5.854;2022-12-07T02:15:22;49.24;45.48;57.49;;
75037;Laerm;64247;51.540;5.854;2022-12-07T02:20:37;48.82;45.46;59.50;;
75037;Laerm;64247;51.540;5.854;2022-12-07T02:29:39;47.11;45.01;51.05;;
75037;Laerm;64247;51.540;5.854;2022-12-07T02:35:07;48.75;45.54;59.93;;
75037;Laerm;64247;51.540;5.854;2022-12-07T02:37:25;49.75;45.58;59.30;;
75037;Laerm;64247;51.540;5.854;2022-12-07T02:39:40;48.22;45.31;55.02;;
75037;Laerm;64247;51.540;5.854;2022-12-07T02:41:56;48.05;44.91;53.21;;
75037;Laerm;64247;51.540;5.854;2022-12-07T02:44:03;51.00;45.66;60.46;;
75037;Laerm;64247;51.540;5.854;2022-12-07T02:46:13;49.03;45.37;57.00;;
75037;Laerm;64247;51.540;5.854;2022-12-07T02:48:17;47.52;45.18;53.06;;
75037;Laerm;64247;51.540;5.854;2022-12-07T02:50:22;50.98;45.51;61.76;;
75037;Laerm;64247;51.540;5.854;2022-12-07T02:52:23;47.42;44.98;53.21;;
75037;Laerm;64247;51.540;5.854;2022-12-07T02:54:24;47.10;44.96;50.60;;
75037;Laerm;64247;51.540;5.854;2022-12-07T02:57:21;50.26;44.37;58.47;;
75037;Laerm;64247;51.540;5.854;2022-12-07T03:00:13;47.75;45.19;57.77;;
75037;Laerm;64247;51.540;5.854;2022-12-07T03:03:00;46.91;44.80;52.07;;
75037;Laerm;64247;51.540;5.854;2022-12-07T03:11:06;47.71;44.98;54.07;;
75037;Laerm;64247;51.540;5.854;2022-12-07T03:14:02;52.44;45.26;64.57;;
75037;Laerm;64247;51.540;5.854;2022-12-07T03:16:20;47.27;45.39;50.52;;
75037;Laerm;64247;51.540;5.854;2022-12-07T03:18:27;47.50;45.36;58.62;;
75037;Laerm;64247;51.540;5.854;2022-12-07T03:20:32;49.25;45.59;55.80;;
75037;Laerm;64247;51.540;5.854;2022-12-07T03:22:39;48.39;45.04;56.74;;
75037;Laerm;64247;51.540;5.854;2022-12-07T03:24:55;52.32;46.03;62.13;;
75037;Laerm;64247;51.540;5.854;2022-12-07T03:30:14;47.88;44.93;54.11;;
75037;Laerm;64247;51.540;5.854;2022-12-07T03:32:47;47.93;45.33;54.07;;
75037;Laerm;64247;51.540;5.854;2022-12-07T03:35:26;47.51;45.01;53.46;;
75037;Laerm;64247;51.540;5.854;2022-12-07T03:38:23;47.52;45.34;52.78;;
75037;Laerm;64247;51.540;5.854;2022-12-07T03:40:50;48.46;45.54;52.88;;
75037;Laerm;64247;51.540;5.854;2022-12-07T03:42:56;48.43;44.94;56.74;;
75037;Laerm;64247;51.540;5.854;2022-12-07T03:45:03;47.73;45.22;54.54;;
75037;Laerm;64247;51.540;5.854;2022-12-07T03:51:31;47.47;45.03;51.97;;
75037;Laerm;64247;51.540;5.854;2022-12-07T03:53:44;48.91;45.08;57.76;;
75037;Laerm;64247;51.540;5.854;2022-12-07T03:55:49;47.14;44.70;51.54;;
75037;Laerm;64247;51.540;5.854;2022-12-07T03:58:05;49.84;45.74;58.13;;
75037;Laerm;64247;51.540;5.854;2022-12-07T04:00:10;48.28;45.06;57.08;;
75037;Laerm;64247;51.540;5.854;2022-12-07T04:02:15;52.71;46.09;63.63;;
75037;Laerm;64247;51.540;5.854;2022-12-07T04:04:17;47.33;45.25;54.10;;
75037;Laerm;64247;51.540;5.854;2022-12-07T04:06:18;49.57;45.83;59.43;;
75037;Laerm;64247;51.540;5.854;2022-12-07T04:08:19;51.46;46.81;59.69;;
75037;Laerm;64247;51.540;5.854;2022-12-07T04:10:20;49.29;45.62;57.20;;
75037;Laerm;64247;51.540;5.854;2022-12-07T04:12:22;48.92;45.84;57.28;;
75037;Laerm;64247;51.540;5.854;2022-12-07T04:14:23;49.32;45.40;62.65;;
75037;Laerm;64247;51.540;5.854;2022-12-07T04:16:24;55.30;49.38;63.40;;
75037;Laerm;64247;51.540;5.854;2022-12-07T04:18:24;54.70;47.81;62.98;;
75037;Laerm;64247;51.540;5.854;2022-12-07T04:20:25;50.26;46.21;60.11;;
75037;Laerm;64247;51.540;5.854;2022-12-07T04:22:26;53.16;46.24;62.94;;
75037;Laerm;64247;51.540;5.854;2022-12-07T04:24:27;53.01;46.87;60.45;;
75037;Laerm;64247;51.540;5.854;2022-12-07T04:26:28;55.12;46.13;62.79;;
75037;Laerm;64247;51.540;5.854;2022-12-07T04:28:29;54.44;48.36;61.87;;
75037;Laerm;64247;51.540;5.854;2022-12-07T04:30:30;52.20;47.09;60.00;;
75037;Laerm;64247;51.540;5.854;2022-12-07T04:32:31;50.94;46.02;57.01;;
75037;Laerm;64247;51.540;5.854;2022-12-07T04:34:34;51.80;47.03;57.69;;
75037;Laerm;64247;51.540;5.854;2022-12-07T04:36:35;51.57;46.05;59.87;;
75037;Laerm;64247;51.540;5.854;2022-12-07T04:38:36;57.79;48.25;65.65;;
75037;Laerm;64247;51.540;5.854;2022-12-07T04:40:37;53.98;46.22;64.75;;
75037;Laerm;64247;51.540;5.854;2022-12-07T04:42:38;48.86;45.58;56.02;;
75037;Laerm;64247;51.540;5.854;2022-12-07T04:44:42;50.41;46.95;60.58;;
75037;Laerm;64247;51.540;5.854;2022-12-07T04:46:42;52.75;47.59;62.42;;
75037;Laerm;64247;51.540;5.854;2022-12-07T04:48:44;52.28;47.52;59.28;;
75037;Laerm;64247;51.540;5.854;2022-12-07T04:50:48;54.13;47.06;61.95;;
75037;Laerm;64247;51.540;5.854;2022-12-07T04:52:50;50.30;45.19;57.53;;
75037;Laerm;64247;51.540;5.854;2022-12-07T04:54:50;51.41;45.08;59.96;;
75037;Laerm;64247;51.540;5.854;2022-12-07T04:56:51;52.72;47.87;59.42;;
75037;Laerm;64247;51.540;5.854;2022-12-07T04:58:54;52.56;47.04;71.96;;
75037;Laerm;64247;51.540;5.854;2022-12-07T05:00:55;55.49;46.03;79.20;;
75037;Laerm;64247;51.540;5.854;2022-12-07T05:02:56;54.19;47.52;64.28;;
75037;Laerm;64247;51.540;5.854;2022-12-07T05:04:57;56.02;46.74;73.01;;
75037;Laerm;64247;51.540;5.854;2022-12-07T05:06:57;50.69;46.15;70.55;;
75037;Laerm;64247;51.540;5.854;2022-12-07T05:08:58;53.64;46.68;62.84;;
75037;Laerm;64247;51.540;5.854;2022-12-07T05:11:00;52.12;45.97;62.10;;
75037;Laerm;64247;51.540;5.854;2022-12-07T05:13:01;55.13;45.92;63.17;;
75037;Laerm;64247;51.540;5.854;2022-12-07T05:15:02;53.27;47.78;60.75;;
75037;Laerm;64247;51.540;5.854;2022-12-07T05:17:03;52.66;45.77;58.91;;
75037;Laerm;64247;51.540;5.854;2022-12-07T05:19:05;54.42;48.11;60.75;;
75037;Laerm;64247;51.540;5.854;2022-12-07T05:21:06;54.91;47.92;62.01;;
75037;Laerm;64247;51.540;5.854;2022-12-07T05:23:07;55.99;49.49;66.06;;
75037;Laerm;64247;51.540;5.854;2022-12-07T05:25:08;58.75;48.13;66.77;;
75037;Laerm;64247;51.540;5.854;2022-12-07T05:27:09;55.49;48.43;63.61;;
75037;Laerm;64247;51.540;5.854;2022-12-07T05:29:12;54.37;48.01;62.67;;
75037;Laerm;64247;51.540;5.854;2022-12-07T05:31:14;58.54;54.56;64.95;;
75037;Laerm;64247;51.540;5.854;2022-12-07T05:33:14;59.35;54.08;64.50;;
75037;Laerm;64247;51.540;5.854;2022-12-07T05:35:16;58.31;51.10;65.79;;
75037;Laerm;64247;51.540;5.854;2022-12-07T05:37:17;53.25;48.70;62.23;;
75037;Laerm;64247;51.540;5.854;2022-12-07T05:39:17;57.19;48.94;63.45;;
75037;Laerm;64247;51.540;5.854;2022-12-07T05:41:19;57.75;52.66;65.44;;
75037;Laerm;64247;51.540;5.854;2022-12-07T05:43:38;56.25;52.13;60.97;;
75037;Laerm;64247;51.540;5.854;2022-12-07T05:45:39;57.25;51.36;62.87;;
75037;Laerm;64247;51.540;5.854;2022-12-07T05:47:40;59.94;53.92;66.13;;
75037;Laerm;64247;51.540;5.854;2022-12-07T05:49:43;58.53;53.76;69.21;;
75037;Laerm;64247;51.540;5.854;2022-12-07T05:51:44;56.80;51.16;62.84;;
75037;Laerm;64247;51.540;5.854;2022-12-07T05:53:45;58.24;53.90;62.67;;
75037;Laerm;64247;51.540;5.854;2022-12-07T05:55:46;57.50;53.46;64.89;;
75037;Laerm;64247;51.540;5.854;2022-12-07T05:57:46;57.80;50.82;71.01;;
75037;Laerm;64247;51.540;5.854;2022-12-07T06:00:07;59.05;53.21;73.53;;
75037;Laerm;64247;51.540;5.854;2022-12-07T06:02:28;59.10;54.42;65.55;;
75037;Laerm;64247;51.540;5.854;2022-12-07T06:04:31;57.55;52.06;63.36;;
75037;Laerm;64247;51.540;5.854;2022-12-07T06:06:32;58.64;51.06;69.06;;
75037;Laerm;64247;51.540;5.854;2022-12-07T06:08:33;57.03;50.63;65.23;;
75037;Laerm;64247;51.540;5.854;2022-12-07T06:10:34;57.98;50.29;64.28;;
75037;Laerm;64247;51.540;5.854;2022-12-07T06:12:34;56.58;49.75;64.45;;
75037;Laerm;64247;51.540;5.854;2022-12-07T06:14:36;56.54;50.91;63.89;;
75037;Laerm;64247;51.540;5.854;2022-12-07T06:16:37;57.03;52.83;63.48;;
75037;Laerm;64247;51.540;5.854;2022-12-07T06:18:37;57.85;53.33;65.31;;
75037;Laerm;64247;51.540;5.854;2022-12-07T06:20:38;56.95;50.97;66.72;;
75037;Laerm;64247;51.540;5.854;2022-12-07T06:22:39;58.43;53.76;63.18;;
75037;Laerm;64247;51.540;5.854;2022-12-07T06:24:40;57.65;52.40;63.85;;
75037;Laerm;64247;51.540;5.854;2022-12-07T06:26:41;56.88;51.84;62.19;;
75037;Laerm;64247;51.540;5.854;2022-12-07T06:28:42;58.87;53.01;64.95;;
75037;Laerm;64247;51.540;5.854;2022-12-07T06:30:43;59.32;54.18;67.69;;
75037;Laerm;64247;51.540;5.854;2022-12-07T06:32:43;57.61;53.73;65.01;;
75037;Laerm;64247;51.540;5.854;2022-12-07T06:34:44;58.64;51.89;64.27;;
75037;Laerm;64247;51.540;5.854;2022-12-07T06:36:47;57.83;53.31;63.06;;
75037;Laerm;64247;51.540;5.854;2022-12-07T06:38:53;56.76;51.18;63.62;;
75037;Laerm;64247;51.540;5.854;2022-12-07T06:40:54;58.06;53.53;62.92;;
75037;Laerm;64247;51.540;5.854;2022-12-07T06:42:55;58.65;53.62;63.27;;
75037;Laerm;64247;51.540;5.854;2022-12-07T06:44:55;59.08;52.83;68.15;;
75037;Laerm;64247;51.540;5.854;2022-12-07T06:46:56;58.45;53.64;65.09;;
75037;Laerm;64247;51.540;5.854;2022-12-07T06:48:57;58.53;53.46;64.45;;
75037;Laerm;64247;51.540;5.854;2022-12-07T06:50:58;58.62;54.68;65.90;;
75037;Laerm;64247;51.540;5.854;2022-12-07T06:52:59;59.10;54.30;65.05;;
75037;Laerm;64247;51.540;5.854;2022-12-07T06:54:59;59.36;54.29;67.18;;
75037;Laerm;64247;51.540;5.854;2022-12-07T06:57:00;61.57;56.04;68.07;;
75037;Laerm;64247;51.540;5.854;2022-12-07T06:59:01;59.17;54.97;65.16;;
75037;Laerm;64247;51.540;5.854;2022-12-07T07:01:08;59.56;55.19;65.28;;
75037;Laerm;64247;51.540;5.854;2022-12-07T07:03:09;58.50;54.37;68.93;;
75037;Laerm;64247;51.540;5.854;2022-12-07T07:05:10;58.64;53.38;63.68;;
75037;Laerm;64247;51.540;5.854;2022-12-07T07:07:11;58.00;52.60;63.72;;
75037;Laerm;64247;51.540;5.854;2022-12-07T07:09:12;57.59;52.68;61.31;;
75037;Laerm;64247;51.540;5.854;2022-12-07T07:11:13;56.16;51.35;64.15;;
75037;Laerm;64247;51.540;5.854;2022-12-07T07:13:13;56.58;52.72;68.37;;
75037;Laerm;64247;51.540;5.854;2022-12-07T07:15:14;57.01;52.83;62.86;;
75037;Laerm;64247;51.540;5.854;2022-12-07T07:17:15;58.37;53.57;65.27;;
75037;Laerm;64247;51.540;5.854;2022-12-07T07:19:16;57.72;52.08;66.23;;
75037;Laerm;64247;51.540;5.854;2022-12-07T07:21:16;55.79;49.97;61.34;;
75037;Laerm;64247;51.540;5.854;2022-12-07T07:23:18;57.56;53.20;64.93;;
75037;Laerm;64247;51.540;5.854;2022-12-07T07:25:19;55.83;51.02;65.23;;
75037;Laerm;64247;51.540;5.854;2022-12-07T07:27:21;57.11;50.01;63.55;;
75037;Laerm;64247;51.540;5.854;2022-12-07T07:29:21;59.07;54.83;65.55;;
75037;Laerm;64247;51.540;5.854;2022-12-07T07:31:22;57.48;52.21;66.97;;
75037;Laerm;64247;51.540;5.854;2022-12-07T07:33:23;56.69;51.11;62.78;;
75037;Laerm;64247;51.540;5.854;2022-12-07T07:35:25;57.14;49.71;66.55;;
75037;Laerm;64247;51.540;5.854;2022-12-07T07:37:26;56.14;51.06;61.73;;
75037;Laerm;64247;51.540;5.854;2022-12-07T07:39:27;56.08;50.05;60.90;;
75037;Laerm;64247;51.540;5.854;2022-12-07T07:41:28;58.58;52.44;66.09;;
75037;Laerm;64247;51.540;5.854;2022-12-07T07:43:28;56.82;48.82;65.87;;
75037;Laerm;64247;51.540;5.854;2022-12-07T07:45:29;57.31;51.34;62.60;;
75037;Laerm;64247;51.540;5.854;2022-12-07T07:47:33;56.99;51.30;62.37;;
75037;Laerm;64247;51.540;5.854;2022-12-07T07:49:34;58.96;52.72;65.41;;
75037;Laerm;64247;51.540;5.854;2022-12-07T07:51:35;56.21;48.60;62.99;;
75037;Laerm;64247;51.540;5.854;2022-12-07T07:53:36;56.03;50.93;63.14;;
75037;Laerm;64247;51.540;5.854;2022-12-07T07:55:36;58.05;49.53;66.71;;
75037;Laerm;64247;51.540;5.854;2022-12-07T07:57:39;55.42;49.29;63.02;;
75037;Laerm;64247;51.540;5.854;2022-12-07T07:59:40;58.38;53.65;63.82;;
75037;Laerm;64247;51.540;5.854;2022-12-07T08:01:40;57.18;50.20;67.83;;
75037;Laerm;64247;51.540;5.854;2022-12-07T08:03:41;55.48;47.23;70.96;;
75037;Laerm;64247;51.540;5.854;2022-12-07T08:05:42;58.12;51.46;67.21;;
75037;Laerm;64247;51.540;5.854;2022-12-07T08:07:43;56.25;48.83;64.48;;
75037;Laerm;64247;51.540;5.854;2022-12-07T08:09:44;53.59;49.23;60.47;;
75037;Laerm;64247;51.540;5.854;2022-12-07T08:11:45;55.80;49.64;65.84;;
75037;Laerm;64247;51.540;5.854;2022-12-07T08:13:46;54.81;48.27;64.86;;
75037;Laerm;64247;51.540;5.854;2022-12-07T08:15:48;57.00;51.50;64.83;;
75037;Laerm;64247;51.540;5.854;2022-12-07T08:17:48;56.45;50.99;64.85;;
75037;Laerm;64247;51.540;5.854;2022-12-07T08:19:49;57.23;50.45;67.66;;
75037;Laerm;64247;51.540;5.854;2022-12-07T08:21:50;57.94;52.82;65.15;;
75037;Laerm;64247;51.540;5.854;2022-12-07T08:23:51;55.66;49.97;65.08;;
75037;Laerm;64247;51.540;5.854;2022-12-07T08:25:52;57.58;50.83;67.23;;
75037;Laerm;64247;51.540;5.854;2022-12-07T08:27:52;56.51;49.60;65.84;;
75037;Laerm;64247;51.540;5.854;2022-12-07T08:29:53;56.70;49.77;64.92;;
75037;Laerm;64247;51.540;5.854;2022-12-07T08:31:55;55.72;49.16;65.22;;
75037;Laerm;64247;51.540;5.854;2022-12-07T08:33:56;58.55;50.11;64.38;;
75037;Laerm;64247;51.540;5.854;2022-12-07T08:36:07;54.19;48.94;60.49;;
75037;Laerm;64247;51.540;5.854;2022-12-07T08:38:08;56.33;50.05;63.13;;
75037;Laerm;64247;51.540;5.854;2022-12-07T08:40:11;60.60;50.48;73.73;;
75037;Laerm;64247;51.540;5.854;2022-12-07T08:42:15;56.80;50.32;67.15;;
75037;Laerm;64247;51.540;5.854;2022-12-07T08:44:16;55.30;48.08;67.39;;
75037;Laerm;64247;51.540;5.854;2022-12-07T08:46:40;57.38;51.46;64.60;;
75037;Laerm;64247;51.540;5.854;2022-12-07T08:49:03;55.76;48.88;65.73;;
75037;Laerm;64247;51.540;5.854;2022-12-07T08:51:06;58.75;50.24;66.74;;
75037;Laerm;64247;51.540;5.854;2022-12-07T08:53:07;59.30;51.20;66.89;;
75037;Laerm;64247;51.540;5.854;2022-12-07T08:55:11;58.78;51.59;69.00;;
75037;Laerm;64247;51.540;5.854;2022-12-07T08:57:12;59.68;53.67;67.13;;
75037;Laerm;64247;51.540;5.854;2022-12-07T08:59:15;57.90;52.47;64.88;;
75037;Laerm;64247;51.540;5.854;2022-12-07T09:01:18;58.98;53.10;64.18;;
75037;Laerm;64247;51.540;5.854;2022-12-07T09:03:18;57.41;48.36;66.76;;
75037;Laerm;64247;51.540;5.854;2022-12-07T09:05:19;55.98;48.53;63.44;;
75037;Laerm;64247;51.540;5.854;2022-12-07T09:07:21;55.34;48.22;65.23;;
75037;Laerm;64247;51.540;5.854;2022-12-07T09:09:22;54.73;48.12;60.81;;
75037;Laerm;64247;51.540;5.854;2022-12-07T09:11:22;55.57;47.89;69.47;;
75037;Laerm;64247;51.540;5.854;2022-12-07T09:13:23;59.40;48.57;70.59;;
75037;Laerm;64247;51.540;5.854;2022-12-07T09:15:24;59.21;52.56;71.90;;
75037;Laerm;64247;51.540;5.854;2022-12-07T09:17:25;54.29;47.31;66.56;;
75037;Laerm;64247;51.540;5.854;2022-12-07T11:30:42;55.90;48.51;63.93;;
75037;Laerm;64247;51.540;5.854;2022-12-07T11:38:28;57.66;51.80;67.29;;
75037;Laerm;64247;51.540;5.854;2022-12-07T11:40:36;53.70;46.80;61.03;;
75037;Laerm;64247;51.540;5.854;2022-12-07T11:42:49;55.67;48.34;67.00;;
75037;Laerm;64247;51.540;5.854;2022-12-07T11:45:16;59.30;49.22;72.33;;
75037;Laerm;64247;51.540;5.854;2022-12-07T11:47:45;56.15;48.33;66.30;;
75037;Laerm;64247;51.540;5.854;2022-12-07T11:50:01;58.15;49.00;69.97;;
75037;Laerm;64247;51.540;5.854;2022-12-07T11:52:22;58.00;50.64;66.03;;
75037;Laerm;64247;51.540;5.854;2022-12-07T11:54:33;55.12;48.46;61.79;;
75037;Laerm;64247;51.540;5.854;2022-12-07T11:56:35;52.39;48.51;58.20;;
75037;Laerm;64247;51.540;5.854;2022-12-07T12:02:18;55.60;49.87;64.76;;
75037;Laerm;64247;51.540;5.854;2022-12-07T12:04:54;54.82;49.99;62.76;;
75037;Laerm;64247;51.540;5.854;2022-12-07T12:06:56;55.36;49.79;62.13;;
75037;Laerm;64247;51.540;5.854;2022-12-07T12:09:35;55.12;50.85;66.58;;
75037;Laerm;64247;51.540;5.854;2022-12-07T12:12:46;56.54;50.90;64.50;;
75037;Laerm;64247;51.540;5.854;2022-12-07T12:16:10;55.57;51.76;61.53;;
75037;Laerm;64247;51.540;5.854;2022-12-07T12:21:29;55.83;51.82;61.52;;
75037;Laerm;64247;51.540;5.854;2022-12-07T12:23:55;55.68;52.08;65.18;;
75037;Laerm;64247;51.540;5.854;2022-12-07T12:26:02;58.47;53.26;69.12;;
75037;Laerm;64247;51.540;5.854;2022-12-07T12:28:04;58.28;51.65;72.12;;
75037;Laerm;64247;51.540;5.854;2022-12-07T12:32:45;56.06;52.25;64.87;;
75037;Laerm;64247;51.540;5.854;2022-12-07T12:35:40;58.54;52.91;68.25;;
75037;Laerm;64247;51.540;5.854;2022-12-07T12:37:42;62.01;55.50;77.73;;
75037;Laerm;64247;51.540;5.854;2022-12-07T12:45:43;61.84;58.34;65.72;;
75037;Laerm;64247;51.540;5.854;2022-12-07T12:48:29;63.27;51.37;81.54;;
75037;Laerm;64247;51.540;5.854;2022-12-07T12:50:37;57.30;51.73;67.92;;
75037;Laerm;64247;51.540;5.854;2022-12-07T12:53:24;57.06;51.56;64.25;;
75037;Laerm;64247;51.540;5.854;2022-12-07T12:58:40;58.74;53.00;71.35;;
75037;Laerm;64247;51.540;5.854;2022-12-07T13:00:41;63.47;53.34;78.45;;
75037;Laerm;64247;51.540;5.854;2022-12-07T13:03:01;59.85;51.88;70.53;;
75037;Laerm;64247;51.540;5.854;2022-12-07T13:05:30;56.69;51.84;68.03;;
75037;Laerm;64247;51.540;5.854;2022-12-07T13:08:13;57.32;51.32;68.43;;
75037;Laerm;64247;51.540;5.854;2022-12-07T13:11:47;60.56;47.86;73.69;;
75037;Laerm;64247;51.540;5.854;2022-12-07T13:13:48;59.07;50.27;69.02;;
75037;Laerm;64247;51.540;5.854;2022-12-07T13:19:55;58.34;50.98;71.28;;
75037;Laerm;64247;51.540;5.854;2022-12-07T13:21:56;58.75;50.90;69.92;;
75037;Laerm;64247;51.540;5.854;2022-12-07T13:24:06;57.58;51.62;71.70;;
75037;Laerm;64247;51.540;5.854;2022-12-07T13:31:39;56.88;50.23;68.39;;
75037;Laerm;64247;51.540;5.854;2022-12-07T13:33:44;57.24;50.91;67.50;;
75037;Laerm;64247;51.540;5.854;2022-12-07T13:35:46;56.08;49.72;63.20;;
75037;Laerm;64247;51.540;5.854;2022-12-07T13:37:47;57.46;51.56;65.95;;
75037;Laerm;64247;51.540;5.854;2022-12-07T13:39:55;57.79;51.59;67.01;;
75037;Laerm;64247;51.540;5.854;2022-12-07T13:41:58;58.38;51.92;68.24;;
75037;Laerm;64247;51.540;5.854;2022-12-07T13:44:14;58.06;49.53;67.87;;
75037;Laerm;64247;51.540;5.854;2022-12-07T13:46:19;55.41;49.94;61.11;;
75037;Laerm;64247;51.540;5.854;2022-12-07T13:48:50;54.95;49.03;65.85;;
75037;Laerm;64247;51.540;5.854;2022-12-07T13:50:58;56.79;48.41;64.98;;
75037;Laerm;64247;51.540;5.854;2022-12-07T13:53:07;56.97;51.58;67.70;;
75037;Laerm;64247;51.540;5.854;2022-12-07T13:55:15;53.89;49.12;61.15;;
75037;Laerm;64247;51.540;5.854;2022-12-07T13:57:20;54.82;51.47;59.61;;
75037;Laerm;64247;51.540;5.854;2022-12-07T13:59:25;57.27;50.48;67.80;;
75037;Laerm;64247;51.540;5.854;2022-12-07T14:01:30;57.01;51.31;65.45;;
75037;Laerm;64247;51.540;5.854;2022-12-07T14:03:35;60.16;53.37;70.49;;
75037;Laerm;64247;51.540;5.854;2022-12-07T14:05:36;59.75;51.61;67.31;;
75037;Laerm;64247;51.540;5.854;2022-12-07T14:08:22;59.11;51.17;68.36;;
75037;Laerm;64247;51.540;5.854;2022-12-07T14:12:54;57.59;51.13;65.36;;
75037;Laerm;64247;51.540;5.854;2022-12-07T14:14:56;53.86;49.41;61.75;;
75037;Laerm;64247;51.540;5.854;2022-12-07T14:17:20;59.70;50.92;70.76;;
75037;Laerm;64247;51.540;5.854;2022-12-07T14:22:08;58.39;50.44;71.69;;
75037;Laerm;64247;51.540;5.854;2022-12-07T14:24:18;58.67;51.92;71.97;;
75037;Laerm;64247;51.540;5.854;2022-12-07T14:26:20;56.39;52.55;62.15;;
75037;Laerm;64247;51.540;5.854;2022-12-07T14:28:41;57.65;51.11;73.44;;
75037;Laerm;64247;51.540;5.854;2022-12-07T14:30:43;57.05;50.69;66.71;;
75037;Laerm;64247;51.540;5.854;2022-12-07T14:32:47;56.67;50.18;69.09;;
75037;Laerm;64247;51.540;5.854;2022-12-07T14:35:17;58.04;51.55;71.71;;
75037;Laerm;64247;51.540;5.854;2022-12-07T14:37:18;57.34;50.13;66.99;;
75037;Laerm;64247;51.540;5.854;2022-12-07T14:39:19;57.08;51.98;63.36;;
75037;Laerm;64247;51.540;5.854;2022-12-07T14:41:22;55.02;49.83;62.40;;
75037;Laerm;64247;51.540;5.854;2022-12-07T14:43:42;60.69;51.46;77.70;;
75037;Laerm;64247;51.540;5.854;2022-12-07T14:45:43;59.22;49.43;74.31;;
75037;Laerm;64247;51.540;5.854;2022-12-07T14:47:45;55.95;49.20;68.27;;
75037;Laerm;64247;51.540;5.854;2022-12-07T14:49:46;56.60;50.49;66.15;;
75037;Laerm;64247;51.540;5.854;2022-12-07T14:51:47;58.87;53.26;70.81;;
75037;Laerm;64247;51.540;5.854;2022-12-07T14:53:51;57.21;50.64;65.58;;
75037;Laerm;64247;51.540;5.854;2022-12-07T14:55:52;55.47;49.90;61.87;;
75037;Laerm;64247;51.540;5.854;2022-12-07T14:57:54;55.98;49.16;73.87;;
75037;Laerm;64247;51.540;5.854;2022-12-07T14:59:55;55.42;49.06;66.34;;
75037;Laerm;64247;51.540;5.854;2022-12-07T15:01:56;56.35;50.67;72.18;;
75037;Laerm;64247;51.540;5.854;2022-12-07T15:03:57;56.85;50.20;64.57;;
75037;Laerm;64247;51.540;5.854;2022-12-07T15:05:58;56.86;50.79;62.96;;
75037;Laerm;64247;51.540;5.854;2022-12-07T15:07:59;56.93;50.93;80.25;;